createdAt,value
2019-03-26T00:00:52.899Z,99.90
2019-03-26T00:03:23.765Z,99.90
2019-03-26T00:05:54.705Z,99.90
2019-03-26T00:08:25.640Z,99.90
2019-03-26T00:10:56.518Z,99.90
2019-03-26T00:13:27.445Z,99.90
2019-03-26T00:15:58.289Z,99.90
2019-03-26T00:18:29.291Z,99.90
2019-03-26T00:21:00.194Z,99.90
2019-03-26T00:23:31.152Z,99.90
2019-03-26T00:26:02.028Z,99.90
2019-03-26T00:28:32.903Z,99.90
2019-03-26T00:31:03.784Z,99.90
2019-03-26T00:33:36.742Z,99.90
2019-03-26T00:36:09.101Z,99.90
2019-03-26T00:38:40.308Z,99.90
2019-03-26T00:41:11.132Z,99.90
2019-03-26T00:43:41.988Z,99.90
2019-03-26T00:46:12.833Z,99.90
2019-03-26T00:48:43.706Z,99.90
2019-03-26T00:51:14.693Z,99.90
2019-03-26T00:53:45.565Z,99.90
2019-03-26T00:56:16.363Z,99.90
2019-03-26T00:58:47.213Z,99.90
2019-03-26T01:01:18.252Z,99.90
2019-03-26T01:03:49.089Z,99.90
2019-03-26T01:06:19.997Z,99.90
2019-03-26T01:08:50.861Z,99.90
2019-03-26T01:11:21.737Z,99.90
2019-03-26T01:13:52.638Z,99.90
2019-03-26T01:16:23.478Z,99.90
2019-03-26T01:18:54.332Z,99.90
2019-03-26T01:21:25.182Z,99.90
2019-03-26T01:23:56.049Z,99.90
2019-03-26T01:26:26.913Z,99.90
2019-03-26T01:28:57.777Z,99.90
2019-03-26T01:31:28.625Z,99.90
2019-03-26T01:33:59.508Z,99.90
2019-03-26T01:36:30.409Z,99.90
2019-03-26T01:39:01.289Z,99.90
2019-03-26T01:41:32.129Z,99.90
2019-03-26T01:44:03.005Z,99.90
2019-03-26T01:46:33.931Z,99.90
2019-03-26T01:49:04.875Z,99.90
2019-03-26T01:51:35.849Z,99.90
2019-03-26T01:54:06.713Z,99.90
2019-03-26T01:56:37.655Z,99.90
2019-03-26T01:59:08.509Z,99.90
2019-03-26T02:01:39.499Z,99.90
2019-03-26T02:04:10.437Z,99.90
2019-03-26T02:06:43.397Z,99.90
2019-03-26T02:09:14.269Z,99.90
2019-03-26T02:11:45.130Z,99.90
2019-03-26T02:14:16.054Z,99.90
2019-03-26T02:16:48.378Z,99.90
2019-03-26T02:19:19.311Z,99.90
2019-03-26T02:21:50.169Z,99.90
2019-03-26T02:24:21.074Z,99.90
2019-03-26T02:26:51.913Z,99.90
2019-03-26T02:29:22.790Z,99.90
2019-03-26T02:31:53.819Z,99.90
2019-03-26T02:34:24.689Z,99.90
2019-03-26T02:36:55.533Z,99.90
2019-03-26T02:39:26.420Z,99.90
2019-03-26T02:41:57.258Z,99.90
2019-03-26T02:44:28.145Z,99.90
2019-03-26T02:46:58.980Z,99.90
2019-03-26T02:49:29.975Z,99.90
2019-03-26T02:52:00.826Z,99.90
2019-03-26T02:54:31.788Z,99.90
2019-03-26T02:59:17.984Z,99.90
2019-03-26T03:01:49.048Z,99.90
2019-03-26T03:04:20.054Z,99.90
2019-03-26T03:06:50.949Z,99.90
2019-03-26T03:09:21.882Z,99.90
2019-03-26T03:11:52.786Z,99.90
2019-03-26T03:14:23.685Z,99.90
2019-03-26T03:16:54.590Z,99.90
2019-03-26T03:19:25.517Z,99.90
2019-03-26T03:21:56.422Z,99.90
2019-03-26T03:24:27.365Z,99.90
2019-03-26T03:27:00.341Z,99.90
2019-03-26T03:29:31.114Z,99.90
2019-03-26T03:32:02.027Z,99.90
2019-03-26T03:34:34.631Z,99.90
2019-03-26T03:37:05.137Z,99.90
2019-03-26T03:39:37.618Z,99.90
2019-03-26T03:42:09.295Z,99.90
2019-03-26T03:44:40.550Z,99.90
2019-03-26T03:47:13.714Z,99.90
2019-03-26T03:49:44.932Z,99.90
2019-03-26T03:52:17.869Z,99.90
2019-03-26T03:54:49.961Z,99.90
2019-03-26T03:57:23.462Z,99.90
2019-03-26T03:59:56.243Z,99.90
2019-03-26T04:02:27.182Z,99.90
2019-03-26T04:04:58.039Z,99.90
2019-03-26T04:07:28.880Z,99.90
2019-03-26T04:09:59.751Z,99.90
2019-03-26T04:12:30.649Z,99.90
2019-03-26T04:15:01.627Z,99.90
2019-03-26T04:17:32.510Z,99.90
2019-03-26T04:20:03.409Z,99.90
2019-03-26T04:22:34.383Z,99.90
2019-03-26T04:25:05.528Z,99.90
2019-03-26T04:27:39.023Z,99.90
2019-03-26T04:30:10.645Z,99.90
2019-03-26T04:32:41.545Z,99.90
2019-03-26T04:35:12.463Z,99.90
2019-03-26T04:37:43.310Z,99.10
2019-03-26T04:40:14.192Z,99.20
2019-03-26T04:42:45.018Z,99.20
2019-03-26T04:45:15.921Z,99.10
2019-03-26T04:47:46.770Z,99.00
2019-03-26T04:50:17.602Z,98.60
2019-03-26T04:52:48.605Z,97.90
2019-03-26T04:55:19.448Z,97.80
2019-03-26T04:57:50.328Z,97.70
2019-03-26T05:00:21.495Z,97.20
2019-03-26T05:02:52.324Z,97.40
2019-03-26T05:05:23.246Z,97.20
2019-03-26T05:07:54.034Z,97.20
2019-03-26T05:10:25.081Z,97.10
2019-03-26T05:12:55.920Z,97.40
2019-03-26T05:15:26.874Z,97.40
2019-03-26T05:17:57.720Z,97.00
2019-03-26T05:20:28.553Z,97.00
2019-03-26T05:22:59.397Z,97.20
2019-03-26T05:25:30.310Z,96.80
2019-03-26T05:28:01.149Z,96.70
2019-03-26T05:30:33.261Z,96.90
2019-03-26T05:33:04.222Z,96.80
2019-03-26T05:35:35.067Z,96.70
2019-03-26T05:38:05.910Z,96.90
2019-03-26T05:40:37.041Z,97.10
2019-03-26T05:45:30.037Z,96.80
2019-03-26T05:48:00.886Z,96.90
2019-03-26T05:50:31.729Z,96.90
2019-03-26T05:53:02.569Z,96.60
2019-03-26T05:55:33.438Z,96.20
2019-03-26T05:58:04.349Z,96.20
2019-03-26T06:00:35.193Z,96.20
2019-03-26T06:03:06.085Z,96.20
2019-03-26T06:05:38.193Z,96.10
2019-03-26T06:08:09.050Z,95.80
2019-03-26T06:10:40.481Z,95.60
2019-03-26T06:13:11.317Z,95.80
2019-03-26T06:15:42.190Z,95.90
2019-03-26T06:18:13.032Z,95.40
2019-03-26T06:20:43.909Z,95.20
2019-03-26T06:23:14.881Z,95.40
2019-03-26T06:25:45.730Z,95.40
2019-03-26T06:28:16.814Z,95.30
2019-03-26T06:30:47.694Z,95.90
2019-03-26T06:33:18.591Z,95.10
2019-03-26T06:35:49.553Z,95.10
2019-03-26T06:38:20.433Z,95.10
2019-03-26T06:40:51.468Z,95.20
2019-03-26T06:43:22.381Z,95.20
2019-03-26T06:45:53.233Z,95.30
2019-03-26T06:48:24.105Z,94.50
2019-03-26T06:50:54.959Z,94.60
2019-03-26T06:53:27.034Z,94.70
2019-03-26T06:55:57.889Z,94.50
2019-03-26T06:58:28.754Z,94.70
2019-03-26T07:00:59.604Z,94.50
2019-03-26T07:03:30.586Z,94.50
2019-03-26T07:06:01.581Z,94.80
2019-03-26T07:08:32.458Z,94.30
2019-03-26T07:11:04.401Z,94.10
2019-03-26T07:13:35.337Z,93.90
2019-03-26T07:16:06.190Z,94.20
2019-03-26T07:18:37.085Z,94.30
2019-03-26T07:21:08.314Z,94.40
2019-03-26T07:23:39.958Z,94.50
2019-03-26T07:26:10.797Z,94.50
2019-03-26T07:28:42.300Z,94.80
2019-03-26T07:31:13.164Z,94.60
2019-03-26T07:33:43.981Z,94.60
2019-03-26T07:36:14.831Z,94.60
2019-03-26T07:38:46.857Z,94.30
2019-03-26T07:41:17.725Z,94.30
2019-03-26T07:43:48.560Z,94.50
2019-03-26T07:46:19.420Z,94.30
2019-03-26T07:48:50.327Z,94.60
2019-03-26T07:51:21.176Z,94.10
2019-03-26T07:53:52.004Z,94.10
2019-03-26T07:56:22.868Z,94.00
2019-03-26T07:58:53.801Z,94.20
2019-03-26T08:01:24.717Z,94.20
2019-03-26T08:03:55.597Z,94.60
2019-03-26T08:06:36.710Z,94.60
2019-03-26T08:09:08.003Z,94.20
2019-03-26T08:11:39.038Z,94.30
2019-03-26T08:14:09.905Z,94.40
2019-03-26T08:16:40.793Z,94.60
2019-03-26T08:19:11.678Z,94.40
2019-03-26T08:21:42.525Z,94.60
2019-03-26T08:24:13.572Z,94.20
2019-03-26T08:26:44.471Z,93.80
2019-03-26T08:29:15.269Z,93.50
2019-03-26T08:31:46.126Z,92.90
2019-03-26T08:34:16.982Z,92.50
2019-03-26T08:36:47.818Z,92.80
2019-03-26T08:39:18.650Z,92.70
2019-03-26T08:41:49.490Z,92.50
2019-03-26T08:44:20.380Z,92.40
2019-03-26T08:46:51.295Z,92.10
2019-03-26T08:49:22.141Z,91.80
2019-03-26T08:51:52.972Z,92.10
2019-03-26T08:54:24.001Z,92.20
2019-03-26T08:56:54.864Z,92.30
2019-03-26T08:59:25.780Z,92.00
2019-03-26T09:01:56.629Z,91.50
2019-03-26T09:04:27.589Z,91.50
2019-03-26T09:06:58.450Z,91.40
2019-03-26T09:09:29.448Z,91.50
2019-03-26T09:12:00.317Z,91.20
2019-03-26T09:14:31.154Z,90.30
2019-03-26T09:17:02.013Z,88.00
2019-03-26T09:19:32.903Z,88.90
2019-03-26T09:22:03.856Z,88.60
2019-03-26T09:24:34.700Z,89.00
2019-03-26T09:27:05.546Z,88.20
2019-03-26T09:29:36.425Z,88.20
2019-03-26T09:32:06.853Z,88.10
2019-03-26T09:34:37.805Z,87.40
2019-03-26T09:37:08.659Z,88.80
2019-03-26T09:39:39.598Z,87.60
2019-03-26T09:42:10.505Z,88.10
2019-03-26T09:44:43.385Z,87.20
2019-03-26T09:47:16.580Z,87.30
2019-03-26T09:49:46.648Z,87.70
2019-03-26T09:52:17.577Z,86.60
2019-03-26T09:54:49.386Z,87.70
2019-03-26T09:57:20.217Z,87.90
2019-03-26T09:59:51.122Z,87.90
2019-03-26T10:02:22.001Z,88.00
2019-03-26T10:04:52.944Z,89.70
2019-03-26T10:07:23.766Z,87.10
2019-03-26T10:09:54.626Z,88.30
2019-03-26T10:12:25.478Z,87.00
2019-03-26T10:14:56.457Z,86.60
2019-03-26T10:17:27.293Z,87.80
2019-03-26T10:19:58.220Z,87.70
2019-03-26T10:22:29.053Z,86.70
2019-03-26T10:24:59.916Z,86.20
2019-03-26T10:27:30.753Z,87.00
2019-03-26T10:30:01.596Z,84.50
2019-03-26T10:32:32.760Z,83.30
2019-03-26T10:35:04.037Z,84.10
2019-03-26T10:37:35.226Z,85.70
2019-03-26T10:40:07.267Z,85.00
2019-03-26T10:42:38.903Z,84.80
2019-03-26T10:45:10.036Z,83.80
2019-03-26T10:47:42.353Z,82.80
2019-03-26T10:50:13.194Z,82.60
2019-03-26T10:52:44.133Z,83.00
2019-03-26T10:55:15.057Z,82.50
2019-03-26T10:57:45.922Z,82.20
2019-03-26T11:00:18.001Z,81.70
2019-03-26T11:02:48.881Z,82.60
2019-03-26T11:05:19.853Z,83.30
2019-03-26T11:07:50.723Z,83.10
2019-03-26T11:10:21.949Z,84.70
2019-03-26T11:12:52.893Z,84.00
2019-03-26T11:15:23.694Z,83.30
2019-03-26T11:17:54.585Z,82.90
2019-03-26T11:20:25.764Z,84.10
2019-03-26T11:22:56.771Z,83.70
2019-03-26T11:25:27.641Z,82.90
2019-03-26T11:27:58.821Z,83.70
2019-03-26T11:30:29.701Z,84.70
2019-03-26T11:33:00.840Z,84.10
2019-03-26T11:35:31.681Z,83.60
2019-03-26T11:38:38.893Z,83.70
2019-03-26T11:41:09.945Z,85.20
2019-03-26T11:44:05.049Z,85.90
2019-03-26T11:46:35.567Z,86.40
2019-03-26T11:49:06.581Z,86.80
2019-03-26T11:51:37.546Z,85.90
2019-03-26T11:54:08.714Z,86.50
2019-03-26T11:56:39.613Z,84.90
2019-03-26T11:59:10.465Z,87.00
2019-03-26T12:01:41.316Z,86.30
2019-03-26T12:04:18.264Z,84.70
2019-03-26T12:06:49.170Z,84.50
2019-03-26T12:09:20.001Z,83.30
2019-03-26T12:11:50.837Z,84.60
2019-03-26T12:14:21.701Z,82.70
2019-03-26T12:16:52.665Z,82.70
2019-03-26T12:19:23.477Z,83.30
2019-03-26T12:21:54.317Z,82.20
2019-03-26T12:24:25.328Z,81.10
2019-03-26T12:26:56.130Z,80.70
2019-03-26T12:29:26.989Z,82.00
2019-03-26T12:31:59.417Z,82.10
2019-03-26T12:34:30.248Z,82.40
2019-03-26T12:37:01.120Z,82.30
2019-03-26T12:39:31.962Z,80.60
2019-03-26T12:42:03.038Z,80.00
2019-03-26T12:44:33.893Z,81.70
2019-03-26T12:47:04.858Z,81.30
2019-03-26T12:49:36.379Z,82.50
2019-03-26T12:52:06.783Z,81.90
2019-03-26T12:54:38.015Z,82.70
2019-03-26T12:57:09.006Z,82.10
2019-03-26T12:59:40.008Z,81.70
2019-03-26T13:02:10.910Z,82.10
2019-03-26T13:04:41.809Z,81.80
2019-03-26T13:07:12.674Z,80.90
2019-03-26T13:09:43.628Z,81.90
2019-03-26T13:12:14.546Z,81.90
2019-03-26T13:14:45.477Z,83.90
2019-03-26T13:17:18.305Z,83.80
2019-03-26T13:19:49.265Z,84.00
2019-03-26T13:22:21.389Z,83.20
2019-03-26T13:24:52.511Z,81.90
2019-03-26T13:27:23.590Z,81.40
2019-03-26T13:29:54.736Z,82.00
2019-03-26T13:32:25.798Z,82.50
2019-03-26T13:34:56.739Z,83.70
2019-03-26T13:37:29.627Z,84.20
2019-03-26T13:40:00.495Z,85.40
2019-03-26T13:42:31.430Z,84.50
2019-03-26T13:45:02.336Z,84.50
2019-03-26T13:47:33.192Z,83.60
2019-03-26T13:50:04.207Z,84.60
2019-03-26T13:53:25.363Z,84.90
2019-03-26T13:55:57.724Z,84.30
2019-03-26T13:58:28.596Z,85.10
2019-03-26T14:01:37.072Z,85.50
2019-03-26T14:04:12.949Z,84.40
2019-03-26T14:06:45.865Z,85.10
2019-03-26T14:09:23.504Z,85.10
2019-03-26T14:11:57.785Z,85.40
2019-03-26T14:14:32.579Z,85.90
2019-03-26T14:17:05.778Z,86.80
2019-03-26T14:19:42.982Z,86.80
2019-03-26T14:22:18.138Z,87.10
2019-03-26T14:24:50.971Z,87.50
2019-03-26T14:27:23.406Z,87.50
2019-03-26T14:30:00.481Z,88.60
2019-03-26T14:32:32.750Z,89.10
2019-03-26T14:35:05.280Z,89.80
2019-03-26T14:37:50.652Z,90.30
2019-03-26T14:40:14.898Z,90.50
2019-03-26T14:42:47.523Z,91.00
2019-03-26T14:45:20.861Z,91.00
2019-03-26T14:47:54.400Z,91.40
2019-03-26T14:50:28.999Z,91.90
2019-03-26T14:53:02.901Z,92.00
2019-03-26T14:55:35.672Z,92.50
2019-03-26T14:58:13.280Z,93.20
2019-03-26T15:00:48.198Z,93.40
2019-03-26T15:03:21.006Z,93.70
2019-03-26T15:05:53.542Z,94.20
2019-03-26T15:08:28.236Z,94.60
2019-03-26T15:11:08.020Z,94.80
2019-03-26T15:13:34.213Z,95.10
2019-03-26T15:16:05.114Z,95.10
2019-03-26T15:18:36.110Z,95.40
2019-03-26T15:21:06.985Z,95.30
2019-03-26T15:23:38.532Z,95.20
2019-03-26T15:26:09.399Z,95.80
2019-03-26T15:28:40.633Z,95.20
2019-03-26T15:31:11.509Z,94.90
2019-03-26T15:33:42.343Z,95.00
2019-03-26T15:36:13.210Z,95.10
2019-03-26T15:38:44.251Z,95.40
2019-03-26T15:41:21.494Z,95.20
2019-03-26T15:43:47.611Z,95.20
2019-03-26T15:46:19.469Z,95.10
2019-03-26T15:48:50.305Z,95.20
2019-03-26T15:51:21.656Z,95.40
2019-03-26T15:53:52.528Z,95.20
2019-03-26T15:56:23.386Z,95.10
2019-03-26T15:58:57.374Z,94.80
2019-03-26T16:01:28.501Z,95.00
2019-03-26T16:03:59.338Z,95.20
2019-03-26T16:06:32.122Z,95.30
2019-03-26T16:09:03.191Z,95.50
2019-03-26T16:11:36.159Z,95.80
2019-03-26T16:14:06.981Z,95.60
2019-03-26T16:16:41.313Z,95.60
2019-03-26T16:19:12.345Z,95.70
2019-03-26T16:21:43.333Z,95.90
2019-03-26T16:24:14.390Z,95.80
2019-03-26T16:26:45.461Z,95.80
2019-03-26T16:29:16.367Z,95.90
2019-03-26T16:31:47.346Z,95.70
2019-03-26T16:34:18.484Z,95.80
2019-03-26T16:36:59.495Z,95.90
2019-03-26T16:39:21.864Z,95.60
2019-03-26T16:41:52.701Z,95.50
2019-03-26T16:44:23.781Z,95.90
2019-03-26T16:46:54.654Z,95.60
2019-03-26T16:49:25.625Z,95.70
2019-03-26T16:51:56.559Z,96.00
2019-03-26T16:54:27.454Z,96.20
2019-03-26T16:56:58.294Z,96.40
2019-03-26T16:59:29.192Z,96.60
2019-03-26T17:02:00.109Z,96.50
2019-03-26T17:04:30.953Z,96.60
2019-03-26T17:07:01.833Z,96.60
2019-03-26T17:09:34.568Z,96.50
2019-03-26T17:12:06.688Z,96.50
2019-03-26T17:14:39.419Z,96.70
2019-03-26T17:17:10.350Z,96.90
2019-03-26T17:19:41.205Z,96.70
2019-03-26T17:22:12.125Z,96.60
2019-03-26T17:24:43.209Z,96.90
2019-03-26T17:27:14.065Z,96.90
2019-03-26T17:29:44.989Z,96.90
2019-03-26T17:32:15.893Z,97.00
2019-03-26T17:34:46.754Z,97.00
2019-03-26T17:37:17.658Z,97.00
2019-03-26T17:39:50.890Z,97.10
2019-03-26T17:42:24.188Z,97.00
2019-03-26T17:44:58.539Z,97.20
2019-03-26T17:47:31.053Z,97.20
2019-03-26T17:50:05.798Z,97.30
2019-03-26T17:52:42.403Z,97.30
2019-03-26T17:55:14.671Z,97.50
2019-03-26T17:57:47.918Z,97.50
2019-03-26T18:00:24.239Z,97.60
2019-03-26T18:02:56.568Z,97.50
2019-03-26T18:05:53.316Z,97.60
2019-03-26T18:08:24.358Z,97.50
2019-03-26T18:10:55.267Z,97.60
2019-03-26T18:13:27.780Z,97.70
2019-03-26T18:16:01.964Z,97.70
2019-03-26T18:18:35.234Z,97.80
2019-03-26T18:21:11.671Z,97.80
2019-03-26T18:23:43.367Z,97.70
2019-03-26T18:26:16.349Z,97.50
2019-03-26T18:28:50.610Z,97.60
2019-03-26T18:31:22.321Z,97.90
2019-03-26T18:33:53.214Z,98.00
2019-03-26T18:36:24.224Z,98.00
2019-03-26T18:38:55.189Z,98.00
2019-03-26T18:41:26.213Z,98.20
2019-03-26T18:43:57.500Z,98.20
2019-03-26T18:46:28.397Z,98.10
2019-03-26T18:48:59.239Z,97.90
2019-03-26T18:51:30.104Z,98.00
2019-03-26T18:54:00.953Z,98.00
2019-03-26T18:56:31.876Z,98.00
2019-03-26T18:59:02.800Z,98.10
2019-03-26T19:01:33.714Z,98.10
2019-03-26T19:04:04.694Z,98.00
2019-03-26T19:06:35.514Z,98.20
2019-03-26T19:09:07.923Z,98.30
2019-03-26T19:11:39.080Z,98.30
2019-03-26T19:14:09.922Z,98.10
2019-03-26T19:16:41.124Z,98.10
2019-03-26T19:19:12.791Z,98.10
2019-03-26T19:21:44.195Z,98.10
2019-03-26T19:24:15.070Z,98.10
2019-03-26T19:26:45.888Z,98.20
2019-03-26T19:29:16.739Z,98.10
2019-03-26T19:31:47.659Z,98.10
2019-03-26T19:34:18.485Z,98.30
2019-03-26T19:36:49.318Z,98.40
2019-03-26T19:39:20.161Z,98.40
2019-03-26T19:41:51.123Z,98.20
2019-03-26T19:44:21.974Z,98.30
2019-03-26T19:46:52.860Z,98.50
2019-03-26T19:49:24.746Z,98.50
2019-03-26T19:51:56.324Z,98.50
2019-03-26T19:54:27.128Z,98.70
2019-03-26T19:56:59.198Z,98.80
2019-03-26T19:59:32.378Z,99.10
2019-03-26T20:02:03.229Z,99.00
2019-03-26T20:04:34.377Z,98.80
2019-03-26T20:07:06.354Z,98.90
2019-03-26T20:09:38.984Z,99.00
2019-03-26T20:12:11.422Z,99.00
2019-03-26T20:14:42.777Z,99.00
2019-03-26T20:17:13.786Z,99.10
2019-03-26T20:19:44.657Z,99.10
2019-03-26T20:22:15.790Z,99.00
2019-03-26T20:24:46.709Z,99.00
2019-03-26T20:27:17.582Z,99.00
2019-03-26T20:29:48.506Z,99.10
2019-03-26T20:32:19.424Z,99.30
2019-03-26T20:34:49.941Z,99.50
2019-03-26T20:37:20.806Z,99.70
2019-03-26T20:39:51.676Z,99.90
2019-03-26T20:42:23.721Z,99.90
2019-03-26T20:44:54.698Z,99.90
2019-03-26T20:47:25.546Z,99.90
2019-03-26T20:49:56.485Z,99.90
2019-03-26T20:52:27.424Z,99.90
2019-03-26T20:54:58.259Z,99.90
2019-03-26T20:57:29.306Z,99.90
2019-03-26T21:00:00.409Z,99.90
2019-03-26T21:02:31.313Z,99.90
2019-03-26T21:05:02.323Z,99.90
2019-03-26T21:07:34.701Z,99.90
2019-03-26T21:10:07.158Z,99.90
2019-03-26T21:12:38.170Z,99.90
2019-03-26T21:15:10.240Z,99.90
2019-03-26T21:17:41.202Z,99.90
2019-03-26T21:20:12.410Z,99.90
2019-03-26T21:22:43.325Z,99.90
2019-03-26T21:25:14.550Z,99.90
2019-03-26T21:27:45.410Z,99.90
2019-03-26T21:30:16.431Z,99.90
2019-03-26T21:32:47.294Z,99.90
2019-03-26T21:35:18.304Z,99.90
2019-03-26T21:37:50.360Z,99.90
2019-03-26T21:40:21.566Z,99.60
2019-03-26T21:42:53.865Z,99.10
2019-03-26T21:45:39.049Z,99.00
2019-03-26T21:48:10.255Z,99.00
2019-03-26T21:50:41.754Z,98.80
2019-03-26T21:53:12.583Z,98.70
2019-03-26T21:55:43.494Z,98.70
2019-03-26T21:58:14.328Z,98.60
2019-03-26T22:00:47.706Z,98.70
2019-03-26T22:03:18.554Z,98.50
2019-03-26T22:05:49.448Z,98.30
2019-03-26T22:08:20.413Z,98.50
2019-03-26T22:10:51.296Z,98.50
2019-03-26T22:13:22.124Z,98.50
2019-03-26T22:15:53.041Z,98.40
2019-03-26T22:18:23.926Z,98.40
2019-03-26T22:20:54.892Z,98.40
2019-03-26T22:23:25.737Z,98.20
2019-03-26T22:25:56.602Z,98.30
2019-03-26T22:28:27.486Z,98.10
2019-03-26T22:30:58.375Z,98.10
2019-03-26T22:33:29.261Z,98.30
2019-03-26T22:36:00.162Z,98.20
2019-03-26T22:38:31.056Z,98.50
2019-03-26T22:41:03.043Z,98.70
2019-03-26T22:43:34.750Z,99.10
2019-03-26T22:46:05.646Z,99.60
2019-03-26T22:48:36.477Z,99.90
2019-03-26T22:51:06.893Z,99.90
2019-03-26T22:53:38.248Z,99.90
2019-03-26T22:56:09.203Z,99.90
2019-03-26T22:58:40.484Z,99.90
2019-03-26T23:01:13.089Z,99.90
2019-03-26T23:03:44.038Z,99.90
2019-03-26T23:06:14.906Z,99.90
2019-03-26T23:08:45.791Z,99.90
2019-03-26T23:11:16.744Z,99.90
2019-03-26T23:13:47.634Z,99.90
2019-03-26T23:16:18.502Z,99.90
2019-03-26T23:18:49.429Z,99.90
2019-03-26T23:21:20.531Z,99.90
2019-03-26T23:23:51.517Z,99.90
2019-03-26T23:26:22.424Z,99.90
2019-03-26T23:28:53.310Z,99.90
2019-03-26T23:31:24.241Z,99.90
2019-03-26T23:33:55.126Z,99.90
2019-03-26T23:36:26.098Z,99.90
2019-03-26T23:38:56.944Z,99.90
2019-03-26T23:41:27.861Z,99.90
2019-03-26T23:44:00.075Z,99.90
2019-03-26T23:46:30.999Z,99.90
2019-03-26T23:49:01.955Z,99.90
2019-03-26T23:51:32.814Z,99.90
2019-03-26T23:54:03.748Z,99.90
2019-03-26T23:56:34.671Z,99.90
2019-03-26T23:59:05.820Z,99.90
